Time;durP1;ratioP1;P1;durP2;ratioP2;P2;SDS_P1;SDS_P2;PMS_P1;PMS_P2;Temp;Humidity;BMP_temperature;BMP_pressure;BME280_temperature;BME280_humidity;BME280_pressure;Samples;Min_cycle;Max_cycle;Signal;HPM_P1;HPM_P2
2022/04/28 00:00:41;;;;;;;75.13;56.80;;;;;;;;;;7301230;19;140865;-75
2022/04/28 00:03:12;;;;;;;70.18;56.05;;;;;;;;;;7300969;19;141001;-75
2022/04/28 00:05:40;;;;;;;72.20;55.80;;;;;;;;;;7300575;19;143048;-75
2022/04/28 00:08:09;;;;;;;71.38;56.15;;;;;;;;;;7301065;19;141017;-75
2022/04/28 00:10:38;;;;;;;69.32;54.55;;;;;;;;;;7300926;19;141525;-75
2022/04/28 00:13:07;;;;;;;68.90;54.72;;;;;;;;;;7299912;19;142131;-74
2022/04/28 00:15:34;;;;;;;67.20;54.45;;;;;;;;;;7299861;19;142009;-74
2022/04/28 00:18:02;;;;;;;69.60;54.22;;;;;;;;;;7298149;19;140834;-76
2022/04/28 00:20:29;;;;;;;65.40;52.58;;;;;;;;;;7299389;19;140979;-74
2022/04/28 00:22:56;;;;;;;66.72;52.83;;;;;;;;;;7300370;19;141836;-74
2022/04/28 00:25:23;;;;;;;69.15;53.22;;;;;;;;;;7297299;19;142051;-74
2022/04/28 00:27:51;;;;;;;66.27;52.80;;;;;;;;;;7298152;19;140862;-74
2022/04/28 00:30:18;;;;;;;65.20;51.55;;;;;;;;;;7299839;19;141175;-74
2022/04/28 00:32:45;;;;;;;63.03;51.33;;;;;;;;;;7299677;19;142005;-74
2022/04/28 00:35:13;;;;;;;65.53;51.72;;;;;;;;;;7300261;19;140706;-74
2022/04/28 00:37:40;;;;;;;62.60;50.05;;;;;;;;;;7299774;19;140841;-74
2022/04/28 00:40:08;;;;;;;63.40;50.83;;;;;;;;;;7300560;19;140776;-74
2022/04/28 00:42:35;;;;;;;64.10;50.60;;;;;;;;;;7299328;19;141246;-74
2022/04/28 00:45:03;;;;;;;63.10;50.93;;;;;;;;;;7299864;19;143336;-73
2022/04/28 00:53:02;;;;;;;61.35;49.03;;;;;;;;;;7298574;19;140548;-74
2022/04/28 00:55:31;;;;;;;61.87;49.60;;;;;;;;;;7298659;19;140965;-74
2022/04/28 00:57:58;;;;;;;60.83;49.22;;;;;;;;;;7298839;19;140578;-74
2022/04/28 01:00:26;;;;;;;57.38;47.75;;;;;;;;;;7298592;19;140689;-74
2022/04/28 01:02:54;;;;;;;58.42;47.70;;;;;;;;;;7298596;19;141346;-74
2022/04/28 01:05:22;;;;;;;58.67;48.40;;;;;;;;;;7298328;19;140837;-74
2022/04/28 01:07:49;;;;;;;59.35;48.42;;;;;;;;;;7298928;19;141069;-74
2022/04/28 01:10:16;;;;;;;59.03;47.15;;;;;;;;;;7298790;19;140832;-74
2022/04/28 01:12:44;;;;;;;55.05;45.88;;;;;;;;;;7297707;19;141247;-74
2022/04/28 01:15:12;;;;;;;55.00;45.90;;;;;;;;;;7298366;19;140682;-74
2022/04/28 01:17:39;;;;;;;55.05;46.30;;;;;;;;;;7298628;19;140624;-75
2022/04/28 01:20:07;;;;;;;55.33;46.00;;;;;;;;;;7298108;19;140776;-74
2022/04/28 01:22:34;;;;;;;56.03;45.97;;;;;;;;;;7297902;19;140824;-74
2022/04/28 01:25:08;;;;;;;54.70;44.80;;;;;;;;;;7296102;19;142521;-74
2022/04/28 01:27:36;;;;;;;54.50;45.03;;;;;;;;;;7297555;19;141038;-74
2022/04/28 01:30:11;;;;;;;53.22;43.47;;;;;;;;;;7296493;19;141491;-74
2022/04/28 01:32:39;;;;;;;52.10;43.80;;;;;;;;;;7297788;19;142011;-74
2022/04/28 01:35:07;;;;;;;51.70;43.65;;;;;;;;;;7297475;19;141849;-74
2022/04/28 01:37:34;;;;;;;51.60;43.00;;;;;;;;;;7297354;19;140562;-75
2022/04/28 01:40:02;;;;;;;51.78;43.13;;;;;;;;;;7298197;19;140692;-75
2022/04/28 01:42:29;;;;;;;51.90;43.47;;;;;;;;;;7296818;19;140942;-74
2022/04/28 01:44:56;;;;;;;50.97;43.17;;;;;;;;;;7297869;19;142819;-74
2022/04/28 01:47:24;;;;;;;51.30;42.28;;;;;;;;;;7298302;19;141100;-74
2022/04/28 01:49:51;;;;;;;51.42;42.35;;;;;;;;;;7297492;19;140829;-74
2022/04/28 01:55:05;;;;;;;49.78;41.35;;;;;;;;;;7296904;19;141548;-75
2022/04/28 01:57:32;;;;;;;49.13;41.38;;;;;;;;;;7297644;19;141537;-74
2022/04/28 02:00:00;;;;;;;49.28;40.88;;;;;;;;;;7297658;19;140825;-74
2022/04/28 02:02:27;;;;;;;48.22;40.35;;;;;;;;;;7296704;19;141065;-74
2022/04/28 02:04:59;;;;;;;48.97;40.70;;;;;;;;;;7296757;19;142456;-74
2022/04/28 02:07:27;;;;;;;47.97;39.97;;;;;;;;;;7297442;19;140552;-74
2022/04/28 02:09:59;;;;;;;48.13;39.67;;;;;;;;;;7294813;19;140676;-74
2022/04/28 02:12:28;;;;;;;47.20;39.77;;;;;;;;;;7296458;19;140994;-74
2022/04/28 02:14:56;;;;;;;45.38;38.72;;;;;;;;;;7296918;19;140640;-73
2022/04/28 02:17:26;;;;;;;46.63;39.45;;;;;;;;;;7296619;19;140722;-74
2022/04/28 02:19:54;;;;;;;45.17;38.57;;;;;;;;;;7296958;19;140753;-74
2022/04/28 02:22:21;;;;;;;43.53;38.47;;;;;;;;;;7296390;19;141449;-75
2022/04/28 02:24:50;;;;;;;43.45;37.83;;;;;;;;;;7296933;19;141974;-74
2022/04/28 02:27:18;;;;;;;44.72;38.42;;;;;;;;;;7296069;19;141179;-74
2022/04/28 02:29:45;;;;;;;44.50;38.15;;;;;;;;;;7296550;19;141170;-74
2022/04/28 02:32:12;;;;;;;43.50;37.45;;;;;;;;;;7295731;19;141606;-75
2022/04/28 02:34:39;;;;;;;42.63;36.97;;;;;;;;;;7296204;19;140709;-74
2022/04/28 02:37:07;;;;;;;42.83;37.03;;;;;;;;;;7294538;19;140922;-75
2022/04/28 02:39:34;;;;;;;41.97;36.42;;;;;;;;;;7296217;19;141129;-74
2022/04/28 02:42:02;;;;;;;42.38;36.38;;;;;;;;;;7295869;19;141465;-74
2022/04/28 02:44:29;;;;;;;41.15;36.05;;;;;;;;;;7295256;19;143110;-74
2022/04/28 02:46:56;;;;;;;41.43;35.80;;;;;;;;;;7296188;19;140846;-74
2022/04/28 02:49:24;;;;;;;40.07;35.10;;;;;;;;;;7297755;19;140857;-74
2022/04/28 02:51:51;;;;;;;41.73;35.53;;;;;;;;;;7302292;19;141247;-75
2022/04/28 02:54:18;;;;;;;42.00;36.03;;;;;;;;;;7302523;19;141799;-75
2022/04/28 02:56:45;;;;;;;41.30;35.85;;;;;;;;;;7301746;19;141024;-75
2022/04/28 02:59:12;;;;;;;38.83;34.05;;;;;;;;;;7302319;19;142152;-75
2022/04/28 03:01:39;;;;;;;40.63;35.33;;;;;;;;;;7302478;19;142666;-74
2022/04/28 03:04:06;;;;;;;40.13;35.20;;;;;;;;;;7302176;19;141789;-75
2022/04/28 03:12:05;;;;;;;38.45;34.22;;;;;;;;;;7301995;19;142548;-74
2022/04/28 03:14:33;;;;;;;38.53;33.97;;;;;;;;;;7302291;19;140897;-74
2022/04/28 03:17:00;;;;;;;37.72;33.58;;;;;;;;;;7303001;19;140742;-74
2022/04/28 03:19:27;;;;;;;36.87;32.87;;;;;;;;;;7302553;19;141640;-74
2022/04/28 03:21:54;;;;;;;36.93;32.80;;;;;;;;;;7301818;19;141313;-74
2022/04/28 03:24:22;;;;;;;36.23;32.30;;;;;;;;;;7301923;19;141227;-74
2022/04/28 03:26:49;;;;;;;38.77;32.80;;;;;;;;;;7305844;19;140866;-74
2022/04/28 03:29:16;;;;;;;36.30;32.30;;;;;;;;;;7309435;19;140809;-74
2022/04/28 03:31:43;;;;;;;36.28;32.20;;;;;;;;;;7310703;19;141181;-75
2022/04/28 03:34:10;;;;;;;34.72;30.90;;;;;;;;;;7303300;19;142637;-75
2022/04/28 03:36:53;;;;;;;35.47;31.60;;;;;;;;;;7302742;19;140727;-74
2022/04/28 03:39:20;;;;;;;35.05;30.58;;;;;;;;;;7301993;19;140844;-74
2022/04/28 03:41:48;;;;;;;34.88;31.08;;;;;;;;;;7301315;19;141334;-75
2022/04/28 03:44:16;;;;;;;35.22;31.38;;;;;;;;;;7300677;19;142677;-74
2022/04/28 03:46:46;;;;;;;34.13;30.33;;;;;;;;;;7301776;19;140536;-75
2022/04/28 03:49:13;;;;;;;34.67;30.98;;;;;;;;;;7300027;19;140662;-75
2022/04/28 03:51:40;;;;;;;34.20;30.50;;;;;;;;;;7300752;19;142000;-74
2022/04/28 03:54:07;;;;;;;34.50;30.73;;;;;;;;;;7300418;19;142795;-74
2022/04/28 03:56:34;;;;;;;33.33;29.73;;;;;;;;;;7299644;19;141280;-74
2022/04/28 03:59:03;;;;;;;33.95;30.20;;;;;;;;;;7300712;19;140885;-75
2022/04/28 04:01:31;;;;;;;33.10;29.60;;;;;;;;;;7300210;19;141605;-74
2022/04/28 04:03:58;;;;;;;32.85;29.30;;;;;;;;;;7300287;19;141964;-75
2022/04/28 04:06:25;;;;;;;32.33;28.83;;;;;;;;;;7301268;19;141006;-75
2022/04/28 04:08:52;;;;;;;32.95;29.42;;;;;;;;;;7300847;19;141484;-75
2022/04/28 04:11:19;;;;;;;31.97;28.57;;;;;;;;;;7300460;19;141290;-76
2022/04/28 04:13:47;;;;;;;33.00;29.38;;;;;;;;;;7300149;19;140897;-76
2022/04/28 04:16:14;;;;;;;32.17;28.67;;;;;;;;;;7300427;19;140914;-75
2022/04/28 04:18:41;;;;;;;32.25;28.73;;;;;;;;;;7300065;19;140813;-75
2022/04/28 04:21:08;;;;;;;31.50;28.10;;;;;;;;;;7300134;19;141659;-75
2022/04/28 04:23:35;;;;;;;30.50;27.30;;;;;;;;;;7299522;19;142378;-75
2022/04/28 04:26:02;;;;;;;30.83;27.52;;;;;;;;;;7300056;19;140468;-75
2022/04/28 04:28:30;;;;;;;30.25;27.00;;;;;;;;;;7299767;19;140753;-76
2022/04/28 04:33:43;;;;;;;12.80;11.68;;;;;;;;;;7299758;19;141040;-78
2022/04/28 04:36:10;;;;;;;17.55;15.88;;;;;;;;;;7300529;19;141779;-76
2022/04/28 04:38:37;;;;;;;16.83;15.18;;;;;;;;;;7300065;19;140778;-83
2022/04/28 04:41:05;;;;;;;24.60;22.00;;;;;;;;;;7299803;19;141147;-76
2022/04/28 04:43:32;;;;;;;21.73;19.48;;;;;;;;;;7299466;19;140846;-78
2022/04/28 04:45:59;;;;;;;26.25;22.67;;;;;;;;;;7298274;19;140947;-77
2022/04/28 04:49:05;;;;;;;22.57;20.27;;;;;;;;;;7300306;19;140652;-82
2022/04/28 04:51:32;;;;;;;25.63;22.17;;;;;;;;;;7299055;19;140852;-77
2022/04/28 04:53:59;;;;;;;24.83;22.17;;;;;;;;;;7299216;19;141300;-77
2022/04/28 04:56:26;;;;;;;24.60;22.00;;;;;;;;;;7299606;19;140836;-79
2022/04/28 04:58:53;;;;;;;23.65;21.20;;;;;;;;;;7298422;19;140752;-80
2022/04/28 05:01:20;;;;;;;24.40;21.80;;;;;;;;;;7299875;19;141081;-80
2022/04/28 05:03:48;;;;;;;23.85;21.38;;;;;;;;;;7298953;19;141690;-78
2022/04/28 05:06:15;;;;;;;24.05;21.52;;;;;;;;;;7299118;19;140781;-80
2022/04/28 05:08:42;;;;;;;23.30;20.90;;;;;;;;;;7298828;19;140600;-79
2022/04/28 05:11:09;;;;;;;24.08;21.42;;;;;;;;;;7296563;19;140902;-76
2022/04/28 05:13:37;;;;;;;23.88;20.73;;;;;;;;;;7296485;19;141952;-76
2022/04/28 05:16:04;;;;;;;22.63;20.20;;;;;;;;;;7298710;19;141002;-76
2022/04/28 05:18:31;;;;;;;22.35;20.02;;;;;;;;;;7299198;19;140575;-76
2022/04/28 05:20:58;;;;;;;22.40;20.07;;;;;;;;;;7297526;19;141920;-76
2022/04/28 05:23:25;;;;;;;22.53;20.13;;;;;;;;;;7298513;19;142190;-76
2022/04/28 05:25:52;;;;;;;22.30;20.00;;;;;;;;;;7298753;19;140584;-76
2022/04/28 05:28:20;;;;;;;22.27;19.88;;;;;;;;;;7298547;19;140681;-76
2022/04/28 05:30:47;;;;;;;21.75;19.55;;;;;;;;;;7298296;19;141357;-75
2022/04/28 05:33:14;;;;;;;21.15;18.95;;;;;;;;;;7297714;19;142359;-74
2022/04/28 05:35:42;;;;;;;21.77;19.50;;;;;;;;;;7298566;19;140675;-75
2022/04/28 05:38:10;;;;;;;21.23;19.03;;;;;;;;;;7298363;19;141292;-74
2022/04/28 05:40:43;;;;;;;20.90;18.70;;;;;;;;;;7297589;19;141750;-75
2022/04/28 05:45:57;;;;;;;20.97;18.80;;;;;;;;;;7298245;19;140900;-76
2022/04/28 05:48:25;;;;;;;20.30;18.20;;;;;;;;;;7298102;19;140607;-76
2022/04/28 05:50:52;;;;;;;20.47;18.27;;;;;;;;;;7297570;19;140631;-75
2022/04/28 05:53:22;;;;;;;20.92;18.73;;;;;;;;;;7296878;19;141544;-76
2022/04/28 05:55:49;;;;;;;20.30;18.20;;;;;;;;;;7298141;19;141025;-74
2022/04/28 05:58:16;;;;;;;20.05;17.95;;;;;;;;;;7297516;19;140784;-74
2022/04/28 06:00:43;;;;;;;20.77;18.67;;;;;;;;;;7294927;19;143108;-74
2022/04/28 06:03:10;;;;;;;19.88;17.88;;;;;;;;;;7297274;19;140825;-74
2022/04/28 06:05:37;;;;;;;20.20;18.10;;;;;;;;;;7298197;19;141871;-75
2022/04/28 06:08:04;;;;;;;19.60;17.60;;;;;;;;;;7295522;19;140696;-74
2022/04/28 06:10:32;;;;;;;19.15;17.10;;;;;;;;;;7296586;19;140832;-74
2022/04/28 06:12:58;;;;;;;20.52;18.33;;;;;;;;;;7296560;19;141966;-74
2022/04/28 06:15:26;;;;;;;19.23;17.27;;;;;;;;;;7296346;19;140766;-74
2022/04/28 06:17:57;;;;;;;19.25;17.25;;;;;;;;;;7296614;19;140690;-75
2022/04/28 06:20:24;;;;;;;19.27;17.27;;;;;;;;;;7296483;19;141333;-74
2022/04/28 06:22:51;;;;;;;18.00;16.20;;;;;;;;;;7296583;19;142902;-74
2022/04/28 06:25:18;;;;;;;18.15;16.35;;;;;;;;;;7294017;19;140946;-74
2022/04/28 06:27:46;;;;;;;18.35;16.48;;;;;;;;;;7296890;19;140657;-75
2022/04/28 06:30:13;;;;;;;17.77;16.00;;;;;;;;;;7295856;19;141294;-74
2022/04/28 06:32:41;;;;;;;18.38;16.48;;;;;;;;;;7296368;19;142498;-75
2022/04/28 06:35:08;;;;;;;17.58;15.88;;;;;;;;;;7296640;19;141537;-75
2022/04/28 06:37:36;;;;;;;18.27;16.48;;;;;;;;;;7294704;19;140894;-75
2022/04/28 06:40:03;;;;;;;18.30;16.48;;;;;;;;;;7296172;19;141759;-76
2022/04/28 06:42:30;;;;;;;18.25;16.35;;;;;;;;;;7295689;19;142774;-74
2022/04/28 06:44:57;;;;;;;17.70;15.90;;;;;;;;;;7294093;19;141189;-75
2022/04/28 06:47:24;;;;;;;17.83;16.02;;;;;;;;;;7295716;19;140834;-75
2022/04/28 06:49:53;;;;;;;17.55;15.77;;;;;;;;;;7295724;19;140826;-75
2022/04/28 06:52:20;;;;;;;17.45;15.75;;;;;;;;;;7296104;19;140684;-75
2022/04/28 06:54:47;;;;;;;17.00;15.32;;;;;;;;;;7295617;19;140670;-75
2022/04/28 06:57:14;;;;;;;17.37;15.67;;;;;;;;;;7295519;19;141093;-75
2022/04/28 06:59:41;;;;;;;17.20;15.40;;;;;;;;;;7293011;19;142237;-75
2022/04/28 07:02:11;;;;;;;16.70;15.10;;;;;;;;;;7295392;19;140807;-75
2022/04/28 07:04:39;;;;;;;16.60;14.95;;;;;;;;;;7295679;19;141317;-76
2022/04/28 07:07:06;;;;;;;16.77;15.17;;;;;;;;;;7295817;19;141729;-76
2022/04/28 07:09:33;;;;;;;16.02;14.43;;;;;;;;;;7295110;19;141498;-75
2022/04/28 07:12:20;;;;;;;16.08;14.48;;;;;;;;;;7295034;19;140667;-76
2022/04/28 07:14:47;;;;;;;16.27;14.68;;;;;;;;;;7294914;19;140880;-75
2022/04/28 07:17:15;;;;;;;16.47;14.83;;;;;;;;;;7294763;19;140851;-75
2022/04/28 07:19:42;;;;;;;16.05;14.45;;;;;;;;;;7293565;19;141546;-75
2022/04/28 07:22:09;;;;;;;15.82;14.23;;;;;;;;;;7294432;19;141960;-74
2022/04/28 07:24:36;;;;;;;15.82;14.23;;;;;;;;;;7295624;19;140879;-75
2022/04/28 07:27:03;;;;;;;15.57;13.98;;;;;;;;;;7295628;19;140730;-75
2022/04/28 07:29:37;;;;;;;15.60;14.07;;;;;;;;;;7294353;19;141362;-74
2022/04/28 07:32:04;;;;;;;15.32;13.82;;;;;;;;;;7293673;19;142205;-76
2022/04/28 07:34:32;;;;;;;15.13;13.63;;;;;;;;;;7295355;19;140830;-76
2022/04/28 07:36:59;;;;;;;14.55;13.15;;;;;;;;;;7299491;19;140808;-76
2022/04/28 07:39:28;;;;;;;15.05;13.65;;;;;;;;;;7301399;19;142812;-75
2022/04/28 07:41:55;;;;;;;14.90;13.50;;;;;;;;;;7302043;19;141752;-76
2022/04/28 07:44:22;;;;;;;14.93;13.43;;;;;;;;;;7301108;19;140559;-75
2022/04/28 07:46:49;;;;;;;14.20;12.88;;;;;;;;;;7301422;19;140911;-76
2022/04/28 07:49:16;;;;;;;14.67;13.20;;;;;;;;;;7301928;19;141641;-76
2022/04/28 07:51:43;;;;;;;11.13;10.10;;;;;;;;;;7301776;19;142773;-75
2022/04/28 07:54:10;;;;;;;11.50;10.45;;;;;;;;;;7301003;19;140689;-75
2022/04/28 07:56:37;;;;;;;13.90;12.60;;;;;;;;;;7301338;19;140729;-75
2022/04/28 07:59:07;;;;;;;11.07;10.00;;;;;;;;;;7300688;19;140586;-75
2022/04/28 08:01:51;;;;;;;13.65;12.25;;;;;;;;;;7300942;19;141214;-75
2022/04/28 08:04:18;;;;;;;12.48;11.30;;;;;;;;;;7301511;19;141228;-76
2022/04/28 08:06:45;;;;;;;5.13;4.72;;;;;;;;;;7300767;19;140873;-75
2022/04/28 08:09:12;;;;;;;4.50;4.20;;;;;;;;;;7299130;19;140696;-76
2022/04/28 08:11:41;;;;;;;12.88;11.68;;;;;;;;;;7300629;19;142083;-76
2022/04/28 08:14:09;;;;;;;13.05;11.75;;;;;;;;;;7300143;19;140694;-75
2022/04/28 08:16:36;;;;;;;13.48;12.18;;;;;;;;;;7300839;19;140741;-75
2022/04/28 08:19:03;;;;;;;13.07;11.88;;;;;;;;;;7300625;19;140850;-75
2022/04/28 08:21:31;;;;;;;12.88;11.57;;;;;;;;;;7300106;19;141942;-75
2022/04/28 08:23:58;;;;;;;13.07;11.77;;;;;;;;;;7301224;19;140750;-74
2022/04/28 08:26:25;;;;;;;13.55;12.25;;;;;;;;;;7299903;19;140967;-75
2022/04/28 08:28:52;;;;;;;12.68;11.48;;;;;;;;;;7299354;19;141437;-76
2022/04/28 08:31:19;;;;;;;12.40;11.20;;;;;;;;;;7298930;19;142553;-75
2022/04/28 08:33:50;;;;;;;12.85;11.63;;;;;;;;;;7298551;19;140640;-75
2022/04/28 08:36:17;;;;;;;12.65;11.45;;;;;;;;;;7299925;19;140695;-75
2022/04/28 08:38:44;;;;;;;12.13;10.98;;;;;;;;;;7300175;19;141644;-75
2022/04/28 08:41:18;;;;;;;12.20;11.00;;;;;;;;;;7299678;19;143596;-75
2022/04/28 08:43:47;;;;;;;12.38;11.18;;;;;;;;;;7298057;19;140749;-75
2022/04/28 08:49:00;;;;;;;11.53;10.43;;;;;;;;;;7298691;19;140995;-75
2022/04/28 08:51:27;;;;;;;11.70;10.60;;;;;;;;;;7298772;19;141936;-75
2022/04/28 08:53:54;;;;;;;11.73;10.63;;;;;;;;;;7299982;19;140590;-74
2022/04/28 08:56:22;;;;;;;12.02;10.93;;;;;;;;;;7299391;19;140775;-75
2022/04/28 08:58:50;;;;;;;11.88;10.68;;;;;;;;;;7299113;19;140663;-75
2022/04/28 09:01:22;;;;;;;11.65;10.55;;;;;;;;;;7298314;19;141489;-75
2022/04/28 09:03:50;;;;;;;11.80;10.63;;;;;;;;;;7299328;19;141747;-75
2022/04/28 09:06:38;;;;;;;11.30;10.20;;;;;;;;;;7299168;19;140839;-75
2022/04/28 09:09:10;;;;;;;11.20;10.10;;;;;;;;;;7298926;19;140993;-74
2022/04/28 09:11:40;;;;;;;11.30;10.30;;;;;;;;;;7298459;19;142491;-75
2022/04/28 09:14:17;;;;;;;11.25;10.23;;;;;;;;;;7298887;19;140506;-75
2022/04/28 09:17:02;;;;;;;10.57;9.57;;;;;;;;;;7296249;19;140825;-74
2022/04/28 09:19:35;;;;;;;11.20;10.10;;;;;;;;;;7298719;19;140893;-75
2022/04/28 09:22:08;;;;;;;10.50;9.50;;;;;;;;;;7296988;19;143593;-75
2022/04/28 09:24:44;;;;;;;10.73;9.73;;;;;;;;;;7296557;19;140684;-75
2022/04/28 09:27:13;;;;;;;10.20;9.20;;;;;;;;;;7298346;19;140754;-75
2022/04/28 09:29:40;;;;;;;10.90;9.90;;;;;;;;;;7297938;19;140843;-75
2022/04/28 09:32:15;;;;;;;10.30;9.40;;;;;;;;;;7295001;19;141718;-75
2022/04/28 09:35:11;;;;;;;10.68;9.68;;;;;;;;;;7296897;19;140875;-75
2022/04/28 09:37:38;;;;;;;9.98;9.07;;;;;;;;;;7296843;19;140952;-75
2022/04/28 09:42:53;;;;;;;9.98;9.07;;;;;;;;;;7298022;19;142004;-74
2022/04/28 09:45:25;;;;;;;9.93;9.00;;;;;;;;;;7295768;19;141084;-74
2022/04/28 09:48:05;;;;;;;9.80;8.90;;;;;;;;;;7298159;19;140782;-75
2022/04/28 09:50:34;;;;;;;9.50;8.60;;;;;;;;;;7297826;19;140891;-75
2022/04/28 09:53:04;;;;;;;10.05;9.05;;;;;;;;;;7297622;19;141281;-76
2022/04/28 09:55:32;;;;;;;9.50;8.60;;;;;;;;;;7296412;19;140855;-75
2022/04/28 09:57:59;;;;;;;9.10;8.20;;;;;;;;;;7296933;19;141285;-75
2022/04/28 10:00:26;;;;;;;9.60;8.70;;;;;;;;;;7294283;19;141211;-75
2022/04/28 10:02:55;;;;;;;9.10;8.30;;;;;;;;;;7296022;19;143013;-75
2022/04/28 10:05:26;;;;;;;9.25;8.35;;;;;;;;;;7295990;19;140800;-75
2022/04/28 10:07:53;;;;;;;9.27;8.48;;;;;;;;;;7296696;19;140674;-75
2022/04/28 10:10:21;;;;;;;9.13;8.23;;;;;;;;;;7296393;19;140876;-75
2022/04/28 10:12:50;;;;;;;9.30;8.40;;;;;;;;;;7297130;19;141294;-75
2022/04/28 10:15:18;;;;;;;8.77;7.97;;;;;;;;;;7296422;19;140830;-74
2022/04/28 10:17:48;;;;;;;8.95;8.15;;;;;;;;;;7296537;19;140780;-76
2022/04/28 10:20:29;;;;;;;9.20;8.33;;;;;;;;;;7296654;19;142406;-75
2022/04/28 10:32:22;;;;;;;8.47;7.67;;;;;;;;;;7296700;19;140844;-76
2022/04/28 10:35:06;;;;;;;8.07;7.38;;;;;;;;;;7295612;19;140620;-75
2022/04/28 10:37:36;;;;;;;8.20;7.40;;;;;;;;;;7296490;19;140573;-75
2022/04/28 10:40:04;;;;;;;7.80;7.10;;;;;;;;;;7296236;19;141236;-75
2022/04/28 10:42:35;;;;;;;8.07;7.27;;;;;;;;;;7296148;19;140763;-75
2022/04/28 10:45:06;;;;;;;7.80;7.10;;;;;;;;;;7295542;19;141100;-75
2022/04/28 10:47:38;;;;;;;8.10;7.30;;;;;;;;;;7294391;19;140858;-74
2022/04/28 10:50:25;;;;;;;7.68;6.97;;;;;;;;;;7296480;19;140812;-75
2022/04/28 10:52:55;;;;;;;7.87;7.17;;;;;;;;;;7296248;19;140758;-75
2022/04/28 10:55:30;;;;;;;7.73;7.03;;;;;;;;;;7294976;19;141945;-75
2022/04/28 10:57:57;;;;;;;7.57;6.87;;;;;;;;;;7299057;19;140852;-75
2022/04/28 11:00:34;;;;;;;7.33;6.73;;;;;;;;;;7300525;19;140819;-73
2022/04/28 11:03:02;;;;;;;7.60;6.90;;;;;;;;;;7296283;19;141041;-75
2022/04/28 11:05:33;;;;;;;7.07;6.47;;;;;;;;;;7294146;19;141001;-75
2022/04/28 11:08:01;;;;;;;7.45;6.75;;;;;;;;;;7295820;19;141096;-75
2022/04/28 11:10:30;;;;;;;7.33;6.63;;;;;;;;;;7296007;19;140774;-76
2022/04/28 11:13:08;;;;;;;7.13;6.43;;;;;;;;;;7302415;19;140655;-76
2022/04/28 11:15:35;;;;;;;7.07;6.47;;;;;;;;;;7300585;19;142062;-76
2022/04/28 11:18:03;;;;;;;7.00;6.30;;;;;;;;;;7302391;19;140633;-75
2022/04/28 11:20:32;;;;;;;7.05;6.43;;;;;;;;;;7302691;19;141336;-76
2022/04/28 11:23:01;;;;;;;6.90;6.30;;;;;;;;;;7302350;19;141176;-75
2022/04/28 11:25:28;;;;;;;6.45;5.85;;;;;;;;;;7302195;19;141915;-75
2022/04/28 11:27:56;;;;;;;7.15;6.45;;;;;;;;;;7303153;19;141425;-76
2022/04/28 11:30:27;;;;;;;6.32;5.72;;;;;;;;;;7301231;19;140740;-74
2022/04/28 11:32:58;;;;;;;6.50;5.90;;;;;;;;;;7301921;19;140900;-74
2022/04/28 11:35:31;;;;;;;6.30;5.73;;;;;;;;;;7300283;19;142003;-76
2022/04/28 11:38:00;;;;;;;6.53;5.85;;;;;;;;;;7302089;19;140735;-77
2022/04/28 11:40:28;;;;;;;6.57;5.97;;;;;;;;;;7302105;19;141339;-76
2022/04/28 11:43:01;;;;;;;6.50;5.80;;;;;;;;;;7301757;19;140476;-76
2022/04/28 11:45:31;;;;;;;6.50;5.90;;;;;;;;;;7299221;19;142223;-77
2022/04/28 11:48:00;;;;;;;5.95;5.45;;;;;;;;;;7301649;19;140593;-76
2022/04/28 11:50:32;;;;;;;6.13;5.63;;;;;;;;;;7301842;19;140803;-77
2022/04/28 11:53:12;;;;;;;5.95;5.40;;;;;;;;;;7300786;19;141058;-77
2022/04/28 11:55:40;;;;;;;5.80;5.30;;;;;;;;;;7300973;19;141974;-76
2022/04/28 11:58:09;;;;;;;5.80;5.30;;;;;;;;;;7301294;19;140530;-77
2022/04/28 12:00:42;;;;;;;5.80;5.30;;;;;;;;;;7300593;19;140557;-76
2022/04/28 12:03:21;;;;;;;5.78;5.28;;;;;;;;;;7301273;19;142064;-76
2022/04/28 12:05:53;;;;;;;5.80;5.30;;;;;;;;;;7300322;19;141235;-76
2022/04/28 12:08:22;;;;;;;5.85;5.35;;;;;;;;;;7301816;19;141281;-76
2022/04/28 12:19:19;;;;;;;6.20;4.43;;;;;;;;;;7299650;19;141006;-79
2022/04/28 12:19:28;;;;;;;6.37;4.10;;;;;;;;;;7300309;19;140846;-79
2022/04/28 12:22:02;;;;;;;6.03;4.22;;;;;;;;;;7300482;19;140617;-79
2022/04/28 12:24:35;;;;;;;4.80;4.27;;;;;;;;;;7300641;19;141221;-79
2022/04/28 12:27:11;;;;;;;6.80;4.30;;;;;;;;;;7298588;19;142057;-79
2022/04/28 12:30:01;;;;;;;4.57;4.10;;;;;;;;;;7299417;19;140860;-78
2022/04/28 12:32:28;;;;;;;6.85;3.95;;;;;;;;;;7298898;19;140786;-79
2022/04/28 12:35:03;;;;;;;4.40;3.80;;;;;;;;;;7299794;19;141125;-79
2022/04/28 12:37:30;;;;;;;4.32;3.67;;;;;;;;;;7299851;19;140687;-79
2022/04/28 12:40:02;;;;;;;6.20;4.00;;;;;;;;;;7299837;19;140544;-79
2022/04/28 12:42:44;;;;;;;6.13;4.00;;;;;;;;;;7298271;19;140713;-80
2022/04/28 12:45:11;;;;;;;5.28;3.92;;;;;;;;;;7300046;19;142691;-79
2022/04/28 12:47:41;;;;;;;5.03;3.83;;;;;;;;;;7298717;19;140997;-79
2022/04/28 12:50:19;;;;;;;5.15;3.83;;;;;;;;;;7300750;19;140990;-80
2022/04/28 12:52:47;;;;;;;4.00;3.60;;;;;;;;;;7300359;19;140681;-76
2022/04/28 12:55:15;;;;;;;4.37;3.80;;;;;;;;;;7303002;19;141027;-76
2022/04/28 12:57:42;;;;;;;6.80;4.00;;;;;;;;;;7300091;19;141470;-76
2022/04/28 13:00:11;;;;;;;4.10;3.70;;;;;;;;;;7299140;19;140756;-76
2022/04/28 13:02:46;;;;;;;4.32;3.50;;;;;;;;;;7298597;19;141054;-76
2022/04/28 13:05:16;;;;;;;4.68;3.88;;;;;;;;;;7298982;19;140751;-76
2022/04/28 13:08:02;;;;;;;4.10;3.70;;;;;;;;;;7297459;19;142470;-76
2022/04/28 13:10:29;;;;;;;4.43;3.97;;;;;;;;;;7299512;19;140453;-76
2022/04/28 13:12:56;;;;;;;4.90;3.60;;;;;;;;;;7299042;19;141010;-76
2022/04/28 13:15:23;;;;;;;4.40;3.43;;;;;;;;;;7296256;19;141799;-76
2022/04/28 13:17:51;;;;;;;4.70;3.63;;;;;;;;;;7298654;19;141990;-77
2022/04/28 13:20:18;;;;;;;3.90;3.60;;;;;;;;;;7299377;19;140917;-77
2022/04/28 13:22:46;;;;;;;3.60;3.30;;;;;;;;;;7298908;19;140688;-77
2022/04/28 13:25:15;;;;;;;3.75;3.38;;;;;;;;;;7298376;19;142764;-77
2022/04/28 13:27:43;;;;;;;3.83;3.40;;;;;;;;;;7297932;19;142045;-77
2022/04/28 13:30:11;;;;;;;3.75;3.35;;;;;;;;;;7296534;19;140981;-77
2022/04/28 13:32:38;;;;;;;3.35;3.05;;;;;;;;;;7296616;19;141386;-77
2022/04/28 13:35:06;;;;;;;3.65;3.30;;;;;;;;;;7297175;19;142154;-77
2022/04/28 13:37:33;;;;;;;3.50;3.20;;;;;;;;;;7297573;19;142011;-78
2022/04/28 13:40:00;;;;;;;3.70;3.30;;;;;;;;;;7298010;19;141332;-77
2022/04/28 13:42:27;;;;;;;3.80;3.38;;;;;;;;;;7297896;19;140897;-76
2022/04/28 13:44:55;;;;;;;3.60;3.30;;;;;;;;;;7295967;19;140801;-76
2022/04/28 13:47:25;;;;;;;3.83;3.42;;;;;;;;;;7295057;19;142083;-77
2022/04/28 13:49:53;;;;;;;3.70;3.33;;;;;;;;;;7296467;19;140875;-77
2022/04/28 13:52:21;;;;;;;3.53;3.22;;;;;;;;;;7295410;19;140716;-77
2022/04/28 13:54:48;;;;;;;3.67;3.25;;;;;;;;;;7297734;19;141602;-77
2022/04/28 13:57:15;;;;;;;3.60;3.17;;;;;;;;;;7297675;19;141435;-77
2022/04/28 13:59:42;;;;;;;4.25;3.50;;;;;;;;;;7297708;19;140622;-77
2022/04/28 14:02:09;;;;;;;3.67;3.20;;;;;;;;;;7296764;19;140662;-77
2022/04/28 14:04:41;;;;;;;3.85;3.15;;;;;;;;;;7297040;19;141739;-77
2022/04/28 14:07:08;;;;;;;3.92;3.00;;;;;;;;;;7295535;19;142667;-77
2022/04/28 14:09:36;;;;;;;3.90;3.47;;;;;;;;;;7297152;19;141350;-77
2022/04/28 14:12:03;;;;;;;3.50;3.00;;;;;;;;;;7295493;19;141553;-77
2022/04/28 14:14:30;;;;;;;4.37;3.40;;;;;;;;;;7294933;19;141793;-77
2022/04/28 14:16:57;;;;;;;3.10;2.90;;;;;;;;;;7295977;19;141370;-78
2022/04/28 14:19:24;;;;;;;3.38;3.08;;;;;;;;;;7297177;19;141060;-77
2022/04/28 14:21:51;;;;;;;3.40;3.10;;;;;;;;;;7297469;19;140842;-77
2022/04/28 14:24:19;;;;;;;3.47;3.10;;;;;;;;;;7296723;19;141981;-77
2022/04/28 14:26:48;;;;;;;3.20;2.90;;;;;;;;;;7296381;19;142584;-77
2022/04/28 14:29:15;;;;;;;3.13;2.83;;;;;;;;;;7296888;19;140857;-77
2022/04/28 14:31:42;;;;;;;3.30;3.00;;;;;;;;;;7296038;19;141050;-77
2022/04/28 14:34:21;;;;;;;3.33;3.03;;;;;;;;;;7296303;19;141508;-77
2022/04/28 14:36:49;;;;;;;3.50;3.03;;;;;;;;;;7295935;19;142408;-77
2022/04/28 14:39:16;;;;;;;3.40;3.10;;;;;;;;;;7296181;19;140669;-77
2022/04/28 14:41:43;;;;;;;3.27;3.00;;;;;;;;;;7296310;19;141008;-77
2022/04/28 14:44:30;;;;;;;3.20;2.90;;;;;;;;;;7295888;19;143390;-77
2022/04/28 14:46:58;;;;;;;3.42;3.13;;;;;;;;;;7299668;19;142290;-77
2022/04/28 14:52:19;;;;;;;3.20;2.90;;;;;;;;;;7303443;19;140676;-77
2022/04/28 14:54:56;;;;;;;3.20;3.00;;;;;;;;;;7301860;19;140858;-78
2022/04/28 14:57:37;;;;;;;3.30;3.00;;;;;;;;;;7303047;19;140971;-77
2022/04/28 15:00:07;;;;;;;3.20;2.90;;;;;;;;;;7303378;19;140725;-77
2022/04/28 15:02:35;;;;;;;3.30;3.00;;;;;;;;;;7301380;19;141657;-77
2022/04/28 15:05:04;;;;;;;3.10;2.70;;;;;;;;;;7302860;19;141800;-77
2022/04/28 15:07:31;;;;;;;3.00;2.70;;;;;;;;;;7300761;19;141914;-77